sensor_id;sensor_type;location;lat;lon;timestamp;P1;durP1;ratioP1;P2;durP2;ratioP2
10463;SDS011;5279;42.048;24.638;2023-06-24T00:00:11;8.23;;;7.43;;
10463;SDS011;5279;42.048;24.638;2023-06-24T00:02:39;7.90;;;7.10;;
10463;SDS011;5279;42.048;24.638;2023-06-24T00:05:09;7.90;;;7.20;;
10463;SDS011;5279;42.048;24.638;2023-06-24T00:07:36;7.93;;;7.10;;
10463;SDS011;5279;42.048;24.638;2023-06-24T00:10:10;7.40;;;6.67;;
10463;SDS011;5279;42.048;24.638;2023-06-24T00:12:38;8.03;;;7.33;;
10463;SDS011;5279;42.048;24.638;2023-06-24T00:15:07;7.87;;;7.13;;
10463;SDS011;5279;42.048;24.638;2023-06-24T00:17:35;7.73;;;6.97;;
10463;SDS011;5279;42.048;24.638;2023-06-24T00:20:03;7.27;;;6.50;;
10463;SDS011;5279;42.048;24.638;2023-06-24T00:22:32;8.33;;;7.50;;
10463;SDS011;5279;42.048;24.638;2023-06-24T00:24:59;7.60;;;6.87;;
10463;SDS011;5279;42.048;24.638;2023-06-24T00:27:28;8.57;;;7.77;;
10463;SDS011;5279;42.048;24.638;2023-06-24T00:29:55;7.90;;;7.10;;
10463;SDS011;5279;42.048;24.638;2023-06-24T00:32:22;7.90;;;7.17;;
10463;SDS011;5279;42.048;24.638;2023-06-24T00:34:49;8.33;;;6.87;;
10463;SDS011;5279;42.048;24.638;2023-06-24T00:37:16;7.83;;;7.07;;
10463;SDS011;5279;42.048;24.638;2023-06-24T00:39:44;8.13;;;7.37;;
10463;SDS011;5279;42.048;24.638;2023-06-24T00:42:11;7.63;;;6.93;;
10463;SDS011;5279;42.048;24.638;2023-06-24T00:44:40;9.83;;;7.40;;
10463;SDS011;5279;42.048;24.638;2023-06-24T00:47:07;7.53;;;6.83;;
10463;SDS011;5279;42.048;24.638;2023-06-24T00:49:35;9.10;;;7.27;;
10463;SDS011;5279;42.048;24.638;2023-06-24T00:52:02;8.43;;;7.63;;
10463;SDS011;5279;42.048;24.638;2023-06-24T00:54:29;7.87;;;7.07;;
10463;SDS011;5279;42.048;24.638;2023-06-24T00:56:57;7.87;;;7.07;;
10463;SDS011;5279;42.048;24.638;2023-06-24T00:59:26;8.03;;;7.23;;
10463;SDS011;5279;42.048;24.638;2023-06-24T01:01:56;7.83;;;7.13;;
10463;SDS011;5279;42.048;24.638;2023-06-24T01:04:26;8.10;;;7.30;;
10463;SDS011;5279;42.048;24.638;2023-06-24T01:06:54;7.57;;;6.90;;
10463;SDS011;5279;42.048;24.638;2023-06-24T01:09:23;8.13;;;7.37;;
10463;SDS011;5279;42.048;24.638;2023-06-24T01:11:50;7.50;;;6.80;;
10463;SDS011;5279;42.048;24.638;2023-06-24T01:14:18;8.27;;;7.47;;
10463;SDS011;5279;42.048;24.638;2023-06-24T01:16:49;7.90;;;7.20;;
10463;SDS011;5279;42.048;24.638;2023-06-24T01:19:37;7.87;;;7.17;;
10463;SDS011;5279;42.048;24.638;2023-06-24T01:22:31;8.23;;;7.50;;
10463;SDS011;5279;42.048;24.638;2023-06-24T01:25:25;8.33;;;7.53;;
10463;SDS011;5279;42.048;24.638;2023-06-24T01:28:18;7.67;;;6.97;;
10463;SDS011;5279;42.048;24.638;2023-06-24T01:30:59;7.77;;;6.97;;
10463;SDS011;5279;42.048;24.638;2023-06-24T01:33:46;8.00;;;7.23;;
10463;SDS011;5279;42.048;24.638;2023-06-24T01:36:17;7.87;;;7.07;;
10463;SDS011;5279;42.048;24.638;2023-06-24T01:38:47;8.27;;;7.47;;
10463;SDS011;5279;42.048;24.638;2023-06-24T01:41:22;7.80;;;7.00;;
10463;SDS011;5279;42.048;24.638;2023-06-24T01:43:53;7.80;;;6.87;;
10463;SDS011;5279;42.048;24.638;2023-06-24T01:46:25;8.20;;;7.40;;
10463;SDS011;5279;42.048;24.638;2023-06-24T01:48:54;11.13;;;7.87;;
10463;SDS011;5279;42.048;24.638;2023-06-24T01:51:24;8.17;;;7.37;;
10463;SDS011;5279;42.048;24.638;2023-06-24T01:53:56;8.33;;;7.57;;
10463;SDS011;5279;42.048;24.638;2023-06-24T01:56:26;8.43;;;7.17;;
10463;SDS011;5279;42.048;24.638;2023-06-24T01:58:55;8.40;;;7.60;;
10463;SDS011;5279;42.048;24.638;2023-06-24T02:01:28;7.90;;;7.20;;
10463;SDS011;5279;42.048;24.638;2023-06-24T02:03:58;8.63;;;6.97;;
10463;SDS011;5279;42.048;24.638;2023-06-24T02:06:26;8.40;;;7.63;;
10463;SDS011;5279;42.048;24.638;2023-06-24T02:08:56;9.20;;;6.73;;
10463;SDS011;5279;42.048;24.638;2023-06-24T02:11:24;7.63;;;6.93;;
10463;SDS011;5279;42.048;24.638;2023-06-24T02:13:54;8.67;;;7.83;;
10463;SDS011;5279;42.048;24.638;2023-06-24T02:16:22;8.70;;;7.27;;
10463;SDS011;5279;42.048;24.638;2023-06-24T02:18:52;8.07;;;7.37;;
10463;SDS011;5279;42.048;24.638;2023-06-24T02:21:21;8.13;;;7.33;;
10463;SDS011;5279;42.048;24.638;2023-06-24T02:23:50;8.60;;;7.67;;
10463;SDS011;5279;42.048;24.638;2023-06-24T02:26:18;8.10;;;7.23;;
10463;SDS011;5279;42.048;24.638;2023-06-24T02:28:46;7.90;;;7.20;;
10463;SDS011;5279;42.048;24.638;2023-06-24T02:31:15;7.73;;;7.03;;
10463;SDS011;5279;42.048;24.638;2023-06-24T02:33:43;8.40;;;7.57;;
10463;SDS011;5279;42.048;24.638;2023-06-24T02:36:12;7.90;;;7.10;;
10463;SDS011;5279;42.048;24.638;2023-06-24T02:38:39;8.40;;;7.60;;
10463;SDS011;5279;42.048;24.638;2023-06-24T02:41:06;8.60;;;7.80;;
10463;SDS011;5279;42.048;24.638;2023-06-24T02:43:33;8.33;;;7.53;;
10463;SDS011;5279;42.048;24.638;2023-06-24T02:46:01;9.07;;;7.97;;
10463;SDS011;5279;42.048;24.638;2023-06-24T02:48:31;8.80;;;7.87;;
10463;SDS011;5279;42.048;24.638;2023-06-24T02:51:00;8.67;;;7.80;;
10463;SDS011;5279;42.048;24.638;2023-06-24T02:53:30;8.33;;;7.53;;
10463;SDS011;5279;42.048;24.638;2023-06-24T02:55:57;8.57;;;7.70;;
10463;SDS011;5279;42.048;24.638;2023-06-24T02:58:25;8.23;;;7.23;;
10463;SDS011;5279;42.048;24.638;2023-06-24T03:00:57;8.70;;;7.90;;
10463;SDS011;5279;42.048;24.638;2023-06-24T03:03:26;8.17;;;7.47;;
10463;SDS011;5279;42.048;24.638;2023-06-24T03:05:54;8.57;;;7.77;;
10463;SDS011;5279;42.048;24.638;2023-06-24T03:08:22;8.40;;;7.60;;
10463;SDS011;5279;42.048;24.638;2023-06-24T03:10:52;9.30;;;8.40;;
10463;SDS011;5279;42.048;24.638;2023-06-24T03:13:21;8.00;;;7.23;;
10463;SDS011;5279;42.048;24.638;2023-06-24T03:15:49;9.03;;;8.13;;
10463;SDS011;5279;42.048;24.638;2023-06-24T03:18:16;8.10;;;7.30;;
10463;SDS011;5279;42.048;24.638;2023-06-24T03:20:43;8.60;;;7.80;;
10463;SDS011;5279;42.048;24.638;2023-06-24T03:23:11;8.37;;;7.57;;
10463;SDS011;5279;42.048;24.638;2023-06-24T03:25:39;9.63;;;8.63;;
10463;SDS011;5279;42.048;24.638;2023-06-24T03:28:07;8.97;;;7.80;;
10463;SDS011;5279;42.048;24.638;2023-06-24T03:30:34;8.73;;;7.83;;
10463;SDS011;5279;42.048;24.638;2023-06-24T03:33:01;8.93;;;7.80;;
10463;SDS011;5279;42.048;24.638;2023-06-24T03:35:28;9.20;;;8.20;;
10463;SDS011;5279;42.048;24.638;2023-06-24T03:37:57;8.27;;;7.47;;
10463;SDS011;5279;42.048;24.638;2023-06-24T03:40:24;8.50;;;7.67;;
10463;SDS011;5279;42.048;24.638;2023-06-24T03:42:51;8.97;;;7.87;;
10463;SDS011;5279;42.048;24.638;2023-06-24T03:45:20;8.47;;;7.63;;
10463;SDS011;5279;42.048;24.638;2023-06-24T03:47:47;8.77;;;7.87;;
10463;SDS011;5279;42.048;24.638;2023-06-24T03:50:14;10.23;;;7.67;;
10463;SDS011;5279;42.048;24.638;2023-06-24T03:52:43;8.20;;;7.40;;
10463;SDS011;5279;42.048;24.638;2023-06-24T03:55:10;9.47;;;8.10;;
10463;SDS011;5279;42.048;24.638;2023-06-24T03:57:37;7.80;;;7.10;;
10463;SDS011;5279;42.048;24.638;2023-06-24T04:00:05;8.47;;;7.30;;
10463;SDS011;5279;42.048;24.638;2023-06-24T04:02:42;8.30;;;7.47;;
10463;SDS011;5279;42.048;24.638;2023-06-24T04:05:10;9.70;;;8.33;;
10463;SDS011;5279;42.048;24.638;2023-06-24T04:07:37;8.03;;;7.30;;
10463;SDS011;5279;42.048;24.638;2023-06-24T04:10:05;9.73;;;8.00;;
10463;SDS011;5279;42.048;24.638;2023-06-24T04:12:34;8.17;;;7.33;;
10463;SDS011;5279;42.048;24.638;2023-06-24T04:15:01;7.80;;;7.10;;
10463;SDS011;5279;42.048;24.638;2023-06-24T04:17:30;9.13;;;7.57;;
10463;SDS011;5279;42.048;24.638;2023-06-24T04:19:59;8.50;;;7.30;;
10463;SDS011;5279;42.048;24.638;2023-06-24T04:22:27;7.77;;;7.00;;
10463;SDS011;5279;42.048;24.638;2023-06-24T04:24:54;7.70;;;7.00;;
10463;SDS011;5279;42.048;24.638;2023-06-24T04:27:21;8.33;;;7.53;;
10463;SDS011;5279;42.048;24.638;2023-06-24T04:46:26;8.70;;;7.80;;
10463;SDS011;5279;42.048;24.638;2023-06-24T04:48:54;8.63;;;7.83;;
10463;SDS011;5279;42.048;24.638;2023-06-24T04:51:22;7.50;;;6.80;;
10463;SDS011;5279;42.048;24.638;2023-06-24T04:53:51;9.63;;;8.00;;
10463;SDS011;5279;42.048;24.638;2023-06-24T04:56:19;10.77;;;7.53;;
10463;SDS011;5279;42.048;24.638;2023-06-24T04:58:46;9.07;;;8.17;;
10463;SDS011;5279;42.048;24.638;2023-06-24T05:01:14;7.97;;;7.23;;
10463;SDS011;5279;42.048;24.638;2023-06-24T05:03:42;8.70;;;7.90;;
10463;SDS011;5279;42.048;24.638;2023-06-24T05:06:09;9.00;;;8.10;;
10463;SDS011;5279;42.048;24.638;2023-06-24T05:08:36;8.93;;;8.00;;
10463;SDS011;5279;42.048;24.638;2023-06-24T05:11:03;10.17;;;8.03;;
10463;SDS011;5279;42.048;24.638;2023-06-24T05:13:30;9.13;;;8.23;;
10463;SDS011;5279;42.048;24.638;2023-06-24T05:15:58;8.73;;;7.73;;
10463;SDS011;5279;42.048;24.638;2023-06-24T05:18:26;9.03;;;8.23;;
10463;SDS011;5279;42.048;24.638;2023-06-24T05:20:55;8.83;;;7.97;;
10463;SDS011;5279;42.048;24.638;2023-06-24T05:23:25;10.03;;;8.10;;
10463;SDS011;5279;42.048;24.638;2023-06-24T05:25:53;9.60;;;8.70;;
10463;SDS011;5279;42.048;24.638;2023-06-24T05:28:20;9.00;;;8.10;;
10463;SDS011;5279;42.048;24.638;2023-06-24T05:30:48;9.00;;;8.10;;
10463;SDS011;5279;42.048;24.638;2023-06-24T05:33:16;9.17;;;8.33;;
10463;SDS011;5279;42.048;24.638;2023-06-24T05:35:46;8.87;;;8.00;;
10463;SDS011;5279;42.048;24.638;2023-06-24T05:38:16;8.10;;;7.40;;
10463;SDS011;5279;42.048;24.638;2023-06-24T05:40:44;7.90;;;7.20;;
10463;SDS011;5279;42.048;24.638;2023-06-24T05:43:12;8.50;;;7.70;;
10463;SDS011;5279;42.048;24.638;2023-06-24T05:45:40;9.63;;;8.73;;
10463;SDS011;5279;42.048;24.638;2023-06-24T05:48:07;8.50;;;7.70;;
10463;SDS011;5279;42.048;24.638;2023-06-24T05:50:34;9.10;;;8.17;;
10463;SDS011;5279;42.048;24.638;2023-06-24T05:53:01;9.00;;;8.10;;
10463;SDS011;5279;42.048;24.638;2023-06-24T05:55:29;9.07;;;7.90;;
10463;SDS011;5279;42.048;24.638;2023-06-24T05:57:56;8.97;;;8.17;;
10463;SDS011;5279;42.048;24.638;2023-06-24T06:00:23;8.57;;;7.73;;
10463;SDS011;5279;42.048;24.638;2023-06-24T06:02:50;9.23;;;8.43;;
10463;SDS011;5279;42.048;24.638;2023-06-24T06:05:22;9.03;;;8.20;;
10463;SDS011;5279;42.048;24.638;2023-06-24T06:07:49;8.23;;;7.53;;
10463;SDS011;5279;42.048;24.638;2023-06-24T06:10:18;9.07;;;8.17;;
10463;SDS011;5279;42.048;24.638;2023-06-24T06:12:48;8.93;;;8.10;;
10463;SDS011;5279;42.048;24.638;2023-06-24T06:15:15;8.90;;;8.10;;
10463;SDS011;5279;42.048;24.638;2023-06-24T06:17:41;9.23;;;8.43;;
10463;SDS011;5279;42.048;24.638;2023-06-24T06:20:09;8.47;;;7.67;;
10463;SDS011;5279;42.048;24.638;2023-06-24T06:22:36;8.63;;;7.73;;
10463;SDS011;5279;42.048;24.638;2023-06-24T06:25:04;8.83;;;8.03;;
10463;SDS011;5279;42.048;24.638;2023-06-24T06:27:31;10.60;;;7.77;;
10463;SDS011;5279;42.048;24.638;2023-06-24T06:29:59;9.60;;;8.70;;
10463;SDS011;5279;42.048;24.638;2023-06-24T06:32:26;7.83;;;7.07;;
10463;SDS011;5279;42.048;24.638;2023-06-24T06:34:53;8.83;;;7.60;;
10463;SDS011;5279;42.048;24.638;2023-06-24T06:37:20;9.67;;;7.83;;
10463;SDS011;5279;42.048;24.638;2023-06-24T06:39:47;8.27;;;7.47;;
10463;SDS011;5279;42.048;24.638;2023-06-24T06:42:15;9.60;;;8.60;;
10463;SDS011;5279;42.048;24.638;2023-06-24T06:44:42;9.23;;;8.33;;
10463;SDS011;5279;42.048;24.638;2023-06-24T06:47:10;8.70;;;7.80;;
10463;SDS011;5279;42.048;24.638;2023-06-24T06:49:37;10.37;;;8.20;;
10463;SDS011;5279;42.048;24.638;2023-06-24T06:52:05;8.63;;;7.83;;
10463;SDS011;5279;42.048;24.638;2023-06-24T06:54:33;9.07;;;8.27;;
10463;SDS011;5279;42.048;24.638;2023-06-24T06:57:00;9.47;;;8.50;;
10463;SDS011;5279;42.048;24.638;2023-06-24T06:59:27;8.90;;;8.10;;
10463;SDS011;5279;42.048;24.638;2023-06-24T07:01:54;9.23;;;8.43;;
10463;SDS011;5279;42.048;24.638;2023-06-24T07:04:22;8.48;;;7.68;;
10463;SDS011;5279;42.048;24.638;2023-06-24T07:06:49;8.77;;;7.90;;
10463;SDS011;5279;42.048;24.638;2023-06-24T07:09:16;10.00;;;8.25;;
10463;SDS011;5279;42.048;24.638;2023-06-24T07:11:43;8.73;;;7.85;;
10463;SDS011;5279;42.048;24.638;2023-06-24T07:14:10;8.38;;;7.63;;
10463;SDS011;5279;42.048;24.638;2023-06-24T07:16:37;9.00;;;8.10;;
10463;SDS011;5279;42.048;24.638;2023-06-24T07:19:04;9.20;;;8.23;;
10463;SDS011;5279;42.048;24.638;2023-06-24T07:21:32;8.63;;;7.82;;
10463;SDS011;5279;42.048;24.638;2023-06-24T07:23:59;8.23;;;7.53;;
10463;SDS011;5279;42.048;24.638;2023-06-24T07:26:26;8.87;;;8.07;;
10463;SDS011;5279;42.048;24.638;2023-06-24T07:28:55;10.30;;;8.23;;
10463;SDS011;5279;42.048;24.638;2023-06-24T07:31:23;8.55;;;7.82;;
10463;SDS011;5279;42.048;24.638;2023-06-24T07:33:50;8.73;;;7.43;;
10463;SDS011;5279;42.048;24.638;2023-06-24T07:36:17;8.43;;;7.72;;
10463;SDS011;5279;42.048;24.638;2023-06-24T07:38:45;8.82;;;8.02;;
10463;SDS011;5279;42.048;24.638;2023-06-24T07:41:12;8.57;;;7.78;;
10463;SDS011;5279;42.048;24.638;2023-06-24T07:43:39;8.68;;;7.82;;
10463;SDS011;5279;42.048;24.638;2023-06-24T07:46:06;8.57;;;7.78;;
10463;SDS011;5279;42.048;24.638;2023-06-24T07:48:33;8.57;;;7.78;;
10463;SDS011;5279;42.048;24.638;2023-06-24T07:50:59;8.55;;;7.80;;
10463;SDS011;5279;42.048;24.638;2023-06-24T07:53:26;8.80;;;7.97;;
10463;SDS011;5279;42.048;24.638;2023-06-24T07:55:55;8.43;;;7.72;;
10463;SDS011;5279;42.048;24.638;2023-06-24T07:58:21;8.48;;;7.68;;
10463;SDS011;5279;42.048;24.638;2023-06-24T08:00:48;8.63;;;7.70;;
10463;SDS011;5279;42.048;24.638;2023-06-24T08:03:15;8.10;;;7.40;;
10463;SDS011;5279;42.048;24.638;2023-06-24T08:05:42;10.32;;;7.80;;
10463;SDS011;5279;42.048;24.638;2023-06-24T08:08:09;9.27;;;7.85;;
10463;SDS011;5279;42.048;24.638;2023-06-24T08:10:35;9.50;;;8.00;;
10463;SDS011;5279;42.048;24.638;2023-06-24T08:13:04;9.40;;;8.50;;
10463;SDS011;5279;42.048;24.638;2023-06-24T08:15:30;8.75;;;7.93;;
10463;SDS011;5279;42.048;24.638;2023-06-24T08:17:57;8.73;;;7.90;;
10463;SDS011;5279;42.048;24.638;2023-06-24T08:20:24;8.68;;;7.72;;
10463;SDS011;5279;42.048;24.638;2023-06-24T08:22:51;8.90;;;8.10;;
10463;SDS011;5279;42.048;24.638;2023-06-24T08:25:18;7.95;;;7.22;;
10463;SDS011;5279;42.048;24.638;2023-06-24T08:27:45;9.07;;;8.27;;
10463;SDS011;5279;42.048;24.638;2023-06-24T08:30:14;8.98;;;7.90;;
10463;SDS011;5279;42.048;24.638;2023-06-24T08:32:41;8.10;;;7.40;;
10463;SDS011;5279;42.048;24.638;2023-06-24T08:35:08;9.13;;;8.23;;
10463;SDS011;5279;42.048;24.638;2023-06-24T08:37:35;8.23;;;7.43;;
10463;SDS011;5279;42.048;24.638;2023-06-24T08:40:03;8.65;;;7.85;;
10463;SDS011;5279;42.048;24.638;2023-06-24T08:42:31;9.38;;;8.40;;
10463;SDS011;5279;42.048;24.638;2023-06-24T08:44:58;8.70;;;7.80;;
10463;SDS011;5279;42.048;24.638;2023-06-24T08:47:26;9.52;;;8.18;;
10463;SDS011;5279;42.048;24.638;2023-06-24T08:50:00;9.63;;;8.68;;
10463;SDS011;5279;42.048;24.638;2023-06-24T08:52:30;8.88;;;8.02;;
10463;SDS011;5279;42.048;24.638;2023-06-24T08:55:01;9.13;;;8.23;;
10463;SDS011;5279;42.048;24.638;2023-06-24T08:57:28;8.35;;;7.55;;
10463;SDS011;5279;42.048;24.638;2023-06-24T08:59:56;9.25;;;8.10;;
10463;SDS011;5279;42.048;24.638;2023-06-24T09:02:23;8.82;;;7.93;;
10463;SDS011;5279;42.048;24.638;2023-06-24T09:04:51;8.73;;;7.93;;
10463;SDS011;5279;42.048;24.638;2023-06-24T09:07:27;8.77;;;7.55;;
10463;SDS011;5279;42.048;24.638;2023-06-24T09:09:55;9.57;;;8.60;;
10463;SDS011;5279;42.048;24.638;2023-06-24T09:12:23;9.00;;;8.23;;
10463;SDS011;5279;42.048;24.638;2023-06-24T09:14:53;8.88;;;8.05;;
10463;SDS011;5279;42.048;24.638;2023-06-24T09:17:20;8.48;;;7.65;;
10463;SDS011;5279;42.048;24.638;2023-06-24T09:19:47;8.48;;;7.75;;
10463;SDS011;5279;42.048;24.638;2023-06-24T09:22:16;8.73;;;7.93;;
10463;SDS011;5279;42.048;24.638;2023-06-24T09:24:43;8.93;;;7.82;;
10463;SDS011;5279;42.048;24.638;2023-06-24T09:27:12;8.68;;;7.88;;
10463;SDS011;5279;42.048;24.638;2023-06-24T09:29:40;8.80;;;8.10;;
10463;SDS011;5279;42.048;24.638;2023-06-24T09:32:08;8.10;;;7.40;;
10463;SDS011;5279;42.048;24.638;2023-06-24T09:34:36;7.88;;;7.18;;
10463;SDS011;5279;42.048;24.638;2023-06-24T09:37:03;8.82;;;7.30;;
10463;SDS011;5279;42.048;24.638;2023-06-24T09:39:36;8.25;;;7.55;;
10463;SDS011;5279;42.048;24.638;2023-06-24T09:42:04;8.55;;;7.13;;
10463;SDS011;5279;42.048;24.638;2023-06-24T09:44:32;8.55;;;7.75;;
10463;SDS011;5279;42.048;24.638;2023-06-24T09:46:59;8.43;;;7.68;;
10463;SDS011;5279;42.048;24.638;2023-06-24T09:49:26;7.78;;;6.93;;
10463;SDS011;5279;42.048;24.638;2023-06-24T09:51:55;9.00;;;8.10;;
10463;SDS011;5279;42.048;24.638;2023-06-24T09:54:24;8.52;;;7.72;;
10463;SDS011;5279;42.048;24.638;2023-06-24T09:56:53;8.55;;;7.75;;
10463;SDS011;5279;42.048;24.638;2023-06-24T09:59:21;8.68;;;7.82;;
10463;SDS011;5279;42.048;24.638;2023-06-24T10:01:49;8.68;;;7.78;;
10463;SDS011;5279;42.048;24.638;2023-06-24T10:04:20;8.20;;;7.40;;
10463;SDS011;5279;42.048;24.638;2023-06-24T10:06:48;8.20;;;7.50;;
10463;SDS011;5279;42.048;24.638;2023-06-24T10:09:16;7.53;;;6.93;;
10463;SDS011;5279;42.048;24.638;2023-06-24T10:11:45;8.35;;;7.57;;
10463;SDS011;5279;42.048;24.638;2023-06-24T10:14:15;7.60;;;7.00;;
10463;SDS011;5279;42.048;24.638;2023-06-24T10:16:42;9.73;;;7.65;;
10463;SDS011;5279;42.048;24.638;2023-06-24T10:19:18;8.98;;;7.90;;
10463;SDS011;5279;42.048;24.638;2023-06-24T10:21:49;9.60;;;8.38;;
10463;SDS011;5279;42.048;24.638;2023-06-24T10:24:29;8.82;;;8.02;;
10463;SDS011;5279;42.048;24.638;2023-06-24T10:27:03;8.70;;;7.90;;
10463;SDS011;5279;42.048;24.638;2023-06-24T10:29:33;8.32;;;7.53;;
10463;SDS011;5279;42.048;24.638;2023-06-24T10:32:04;8.13;;;7.43;;
10463;SDS011;5279;42.048;24.638;2023-06-24T10:34:39;8.65;;;7.85;;
10463;SDS011;5279;42.048;24.638;2023-06-24T10:37:08;9.32;;;7.78;;
10463;SDS011;5279;42.048;24.638;2023-06-24T10:39:38;8.13;;;7.43;;
10463;SDS011;5279;42.048;24.638;2023-06-24T10:42:26;8.05;;;7.25;;
10463;SDS011;5279;42.048;24.638;2023-06-24T10:45:00;7.93;;;7.22;;
10463;SDS011;5279;42.048;24.638;2023-06-24T10:47:28;7.97;;;7.18;;
10463;SDS011;5279;42.048;24.638;2023-06-24T10:49:56;7.63;;;6.93;;
10463;SDS011;5279;42.048;24.638;2023-06-24T10:52:23;7.78;;;6.97;;
10463;SDS011;5279;42.048;24.638;2023-06-24T10:54:50;8.00;;;7.30;;
10463;SDS011;5279;42.048;24.638;2023-06-24T10:57:22;8.05;;;7.13;;
10463;SDS011;5279;42.048;24.638;2023-06-24T10:59:49;8.07;;;7.32;;
10463;SDS011;5279;42.048;24.638;2023-06-24T11:02:19;8.18;;;7.38;;
10463;SDS011;5279;42.048;24.638;2023-06-24T11:04:47;9.73;;;7.43;;
10463;SDS011;5279;42.048;24.638;2023-06-24T11:07:15;7.93;;;7.18;;
10463;SDS011;5279;42.048;24.638;2023-06-24T11:09:48;7.53;;;6.78;;
10463;SDS011;5279;42.048;24.638;2023-06-24T11:12:15;7.30;;;6.70;;
10463;SDS011;5279;42.048;24.638;2023-06-24T11:14:43;7.47;;;6.78;;
10463;SDS011;5279;42.048;24.638;2023-06-24T11:17:10;7.65;;;7.05;;
10463;SDS011;5279;42.048;24.638;2023-06-24T11:19:39;7.15;;;6.50;;
10463;SDS011;5279;42.048;24.638;2023-06-24T11:22:06;7.93;;;7.22;;
10463;SDS011;5279;42.048;24.638;2023-06-24T11:24:34;8.07;;;7.28;;
10463;SDS011;5279;42.048;24.638;2023-06-24T11:27:01;8.20;;;7.47;;
10463;SDS011;5279;42.048;24.638;2023-06-24T11:29:32;7.65;;;6.93;;
10463;SDS011;5279;42.048;24.638;2023-06-24T11:32:01;7.57;;;6.85;;
10463;SDS011;5279;42.048;24.638;2023-06-24T11:34:36;7.88;;;6.75;;
10463;SDS011;5279;42.048;24.638;2023-06-24T11:37:10;7.72;;;7.13;;
10463;SDS011;5279;42.048;24.638;2023-06-24T11:39:38;8.05;;;6.78;;
10463;SDS011;5279;42.048;24.638;2023-06-24T11:42:06;7.40;;;6.70;;
10463;SDS011;5279;42.048;24.638;2023-06-24T11:44:34;7.32;;;6.63;;
10463;SDS011;5279;42.048;24.638;2023-06-24T11:47:05;8.60;;;7.32;;
10463;SDS011;5279;42.048;24.638;2023-06-24T11:49:48;8.02;;;7.18;;
10463;SDS011;5279;42.048;24.638;2023-06-24T11:52:16;7.75;;;7.05;;
10463;SDS011;5279;42.048;24.638;2023-06-24T11:54:43;7.38;;;6.55;;
10463;SDS011;5279;42.048;24.638;2023-06-24T11:57:12;8.13;;;6.63;;
10463;SDS011;5279;42.048;24.638;2023-06-24T11:59:40;7.40;;;6.60;;
10463;SDS011;5279;42.048;24.638;2023-06-24T12:02:20;7.35;;;6.65;;
10463;SDS011;5279;42.048;24.638;2023-06-24T12:04:49;7.00;;;6.30;;
10463;SDS011;5279;42.048;24.638;2023-06-24T12:07:17;8.15;;;6.00;;
10463;SDS011;5279;42.048;24.638;2023-06-24T12:09:44;7.75;;;6.97;;
10463;SDS011;5279;42.048;24.638;2023-06-24T12:12:11;7.53;;;6.93;;
10463;SDS011;5279;42.048;24.638;2023-06-24T12:14:38;7.65;;;6.55;;
10463;SDS011;5279;42.048;24.638;2023-06-24T12:17:06;6.88;;;6.28;;
10463;SDS011;5279;42.048;24.638;2023-06-24T12:19:33;7.10;;;6.25;;
10463;SDS011;5279;42.048;24.638;2023-06-24T12:22:03;7.20;;;6.43;;
10463;SDS011;5279;42.048;24.638;2023-06-24T12:24:30;6.25;;;5.75;;
10463;SDS011;5279;42.048;24.638;2023-06-24T12:26:58;6.95;;;6.32;;
10463;SDS011;5279;42.048;24.638;2023-06-24T12:29:25;7.07;;;6.45;;
10463;SDS011;5279;42.048;24.638;2023-06-24T12:31:53;7.22;;;6.55;;
10463;SDS011;5279;42.048;24.638;2023-06-24T12:34:20;6.82;;;6.22;;
10463;SDS011;5279;42.048;24.638;2023-06-24T12:36:48;6.90;;;6.30;;
10463;SDS011;5279;42.048;24.638;2023-06-24T12:39:18;7.00;;;6.30;;
10463;SDS011;5279;42.048;24.638;2023-06-24T12:41:45;7.07;;;6.47;;
10463;SDS011;5279;42.048;24.638;2023-06-24T12:44:13;10.82;;;6.32;;
10463;SDS011;5279;42.048;24.638;2023-06-24T12:46:41;7.05;;;6.45;;
10463;SDS011;5279;42.048;24.638;2023-06-24T12:49:10;7.05;;;6.45;;
10463;SDS011;5279;42.048;24.638;2023-06-24T12:51:37;7.78;;;6.28;;
10463;SDS011;5279;42.048;24.638;2023-06-24T12:54:05;6.95;;;6.35;;
10463;SDS011;5279;42.048;24.638;2023-06-24T12:56:33;6.40;;;5.80;;
10463;SDS011;5279;42.048;24.638;2023-06-24T12:59:00;5.97;;;5.43;;
10463;SDS011;5279;42.048;24.638;2023-06-24T13:01:27;6.55;;;5.80;;
10463;SDS011;5279;42.048;24.638;2023-06-24T13:03:54;6.97;;;6.18;;
10463;SDS011;5279;42.048;24.638;2023-06-24T13:06:21;6.30;;;5.80;;
10463;SDS011;5279;42.048;24.638;2023-06-24T13:08:48;5.72;;;5.22;;
10463;SDS011;5279;42.048;24.638;2023-06-24T13:11:14;6.15;;;5.63;;
10463;SDS011;5279;42.048;24.638;2023-06-24T13:13:43;6.65;;;6.03;;
10463;SDS011;5279;42.048;24.638;2023-06-24T13:16:11;6.65;;;5.93;;
10463;SDS011;5279;42.048;24.638;2023-06-24T13:18:38;6.15;;;5.60;;
10463;SDS011;5279;42.048;24.638;2023-06-24T13:21:05;6.28;;;5.78;;
10463;SDS011;5279;42.048;24.638;2023-06-24T13:23:32;6.82;;;6.22;;
10463;SDS011;5279;42.048;24.638;2023-06-24T13:26:02;6.97;;;6.18;;
10463;SDS011;5279;42.048;24.638;2023-06-24T13:28:29;7.13;;;6.43;;
10463;SDS011;5279;42.048;24.638;2023-06-24T13:30:58;7.47;;;6.88;;
10463;SDS011;5279;42.048;24.638;2023-06-24T13:33:25;6.88;;;6.25;;
10463;SDS011;5279;42.048;24.638;2023-06-24T13:35:52;6.55;;;5.95;;
10463;SDS011;5279;42.048;24.638;2023-06-24T13:38:19;6.90;;;6.30;;
10463;SDS011;5279;42.048;24.638;2023-06-24T13:40:46;6.38;;;5.88;;
10463;SDS011;5279;42.048;24.638;2023-06-24T13:43:13;8.07;;;7.30;;
10463;SDS011;5279;42.048;24.638;2023-06-24T13:45:40;7.25;;;6.63;;
10463;SDS011;5279;42.048;24.638;2023-06-24T13:48:08;7.20;;;6.50;;
10463;SDS011;5279;42.048;24.638;2023-06-24T13:50:35;7.53;;;6.32;;
10463;SDS011;5279;42.048;24.638;2023-06-24T13:53:02;6.90;;;6.40;;
10463;SDS011;5279;42.048;24.638;2023-06-24T13:55:29;6.78;;;6.20;;
10463;SDS011;5279;42.048;24.638;2023-06-24T13:57:56;6.60;;;6.05;;
10463;SDS011;5279;42.048;24.638;2023-06-24T14:00:23;7.20;;;6.60;;
10463;SDS011;5279;42.048;24.638;2023-06-24T14:02:51;7.25;;;6.32;;
10463;SDS011;5279;42.048;24.638;2023-06-24T14:05:19;6.70;;;6.10;;
10463;SDS011;5279;42.048;24.638;2023-06-24T14:07:47;6.30;;;5.70;;
10463;SDS011;5279;42.048;24.638;2023-06-24T14:10:14;6.68;;;6.07;;
10463;SDS011;5279;42.048;24.638;2023-06-24T14:12:41;6.88;;;6.28;;
10463;SDS011;5279;42.048;24.638;2023-06-24T14:15:09;8.77;;;6.60;;
10463;SDS011;5279;42.048;24.638;2023-06-24T14:17:36;7.10;;;6.50;;
10463;SDS011;5279;42.048;24.638;2023-06-24T14:20:03;7.13;;;6.53;;
10463;SDS011;5279;42.048;24.638;2023-06-24T14:22:32;6.60;;;6.10;;
10463;SDS011;5279;42.048;24.638;2023-06-24T14:24:59;6.93;;;6.32;;
10463;SDS011;5279;42.048;24.638;2023-06-24T14:27:26;6.85;;;6.18;;
10463;SDS011;5279;42.048;24.638;2023-06-24T14:29:53;7.13;;;6.53;;
10463;SDS011;5279;42.048;24.638;2023-06-24T14:32:20;7.63;;;6.20;;
10463;SDS011;5279;42.048;24.638;2023-06-24T14:34:46;7.10;;;6.38;;
10463;SDS011;5279;42.048;24.638;2023-06-24T14:37:14;6.78;;;6.03;;
10463;SDS011;5279;42.048;24.638;2023-06-24T14:39:42;7.38;;;6.75;;
10463;SDS011;5279;42.048;24.638;2023-06-24T14:42:09;7.95;;;6.22;;
10463;SDS011;5279;42.048;24.638;2023-06-24T14:44:36;7.00;;;6.40;;
10463;SDS011;5279;42.048;24.638;2023-06-24T14:47:03;7.10;;;6.50;;
10463;SDS011;5279;42.048;24.638;2023-06-24T14:49:30;8.23;;;6.32;;
10463;SDS011;5279;42.048;24.638;2023-06-24T14:51:58;8.82;;;6.72;;
10463;SDS011;5279;42.048;24.638;2023-06-24T14:54:24;7.25;;;6.55;;
10463;SDS011;5279;42.048;24.638;2023-06-24T14:56:53;6.97;;;6.38;;
10463;SDS011;5279;42.048;24.638;2023-06-24T14:59:20;6.97;;;6.38;;
10463;SDS011;5279;42.048;24.638;2023-06-24T15:01:46;8.15;;;7.35;;
10463;SDS011;5279;42.048;24.638;2023-06-24T15:04:13;7.00;;;6.50;;
10463;SDS011;5279;42.048;24.638;2023-06-24T15:06:40;7.32;;;6.68;;
10463;SDS011;5279;42.048;24.638;2023-06-24T15:09:08;7.10;;;6.50;;
10463;SDS011;5279;42.048;24.638;2023-06-24T15:11:35;8.00;;;7.20;;